sensor_id;sensor_type;location;lat;lon;timestamp;P1;durP1;ratioP1;P2;durP2;ratioP2
60426;SDS011;46274;47.168;27.604;2023-04-06T00:01:25;8.20;;;4.83;;
60426;SDS011;46274;47.168;27.604;2023-04-06T00:07:27;9.47;;;5.63;;
60426;SDS011;46274;47.168;27.604;2023-04-06T00:13:31;9.53;;;5.67;;
60426;SDS011;46274;47.168;27.604;2023-04-06T00:19:33;10.67;;;6.03;;
60426;SDS011;46274;47.168;27.604;2023-04-06T00:25:35;12.20;;;6.00;;
60426;SDS011;46274;47.168;27.604;2023-04-06T00:31:36;11.77;;;6.30;;
60426;SDS011;46274;47.168;27.604;2023-04-06T00:37:38;11.07;;;6.43;;
60426;SDS011;46274;47.168;27.604;2023-04-06T00:43:41;11.00;;;6.00;;
60426;SDS011;46274;47.168;27.604;2023-04-06T00:49:42;12.73;;;6.13;;
60426;SDS011;46274;47.168;27.604;2023-04-06T00:55:44;12.83;;;6.73;;
60426;SDS011;46274;47.168;27.604;2023-04-06T01:01:46;10.13;;;6.43;;
60426;SDS011;46274;47.168;27.604;2023-04-06T01:07:49;10.27;;;6.07;;
60426;SDS011;46274;47.168;27.604;2023-04-06T01:13:53;10.73;;;5.50;;
60426;SDS011;46274;47.168;27.604;2023-04-06T01:19:55;10.47;;;6.60;;
60426;SDS011;46274;47.168;27.604;2023-04-06T01:25:57;10.47;;;6.77;;
60426;SDS011;46274;47.168;27.604;2023-04-06T01:32:00;9.53;;;6.03;;
60426;SDS011;46274;47.168;27.604;2023-04-06T01:38:02;9.53;;;6.00;;
60426;SDS011;46274;47.168;27.604;2023-04-06T01:44:05;10.63;;;6.40;;
60426;SDS011;46274;47.168;27.604;2023-04-06T01:50:07;16.33;;;6.20;;
60426;SDS011;46274;47.168;27.604;2023-04-06T01:56:10;12.50;;;6.70;;
60426;SDS011;46274;47.168;27.604;2023-04-06T02:02:12;9.87;;;6.00;;
60426;SDS011;46274;47.168;27.604;2023-04-06T02:08:15;9.53;;;5.30;;
60426;SDS011;46274;47.168;27.604;2023-04-06T02:14:17;7.43;;;5.37;;
60426;SDS011;46274;47.168;27.604;2023-04-06T02:20:19;9.87;;;5.87;;
60426;SDS011;46274;47.168;27.604;2023-04-06T02:26:21;10.83;;;6.17;;
60426;SDS011;46274;47.168;27.604;2023-04-06T02:32:24;8.27;;;5.60;;
60426;SDS011;46274;47.168;27.604;2023-04-06T02:38:26;8.70;;;5.33;;
60426;SDS011;46274;47.168;27.604;2023-04-06T02:44:29;11.97;;;5.90;;
60426;SDS011;46274;47.168;27.604;2023-04-06T02:50:31;10.77;;;5.13;;
60426;SDS011;46274;47.168;27.604;2023-04-06T02:56:33;10.27;;;4.87;;
60426;SDS011;46274;47.168;27.604;2023-04-06T03:02:36;9.63;;;5.60;;
60426;SDS011;46274;47.168;27.604;2023-04-06T03:08:38;11.10;;;5.27;;
60426;SDS011;46274;47.168;27.604;2023-04-06T03:14:41;8.43;;;5.73;;
60426;SDS011;46274;47.168;27.604;2023-04-06T03:20:43;7.93;;;4.80;;
60426;SDS011;46274;47.168;27.604;2023-04-06T03:26:46;8.93;;;5.50;;
60426;SDS011;46274;47.168;27.604;2023-04-06T03:32:48;7.47;;;5.03;;
60426;SDS011;46274;47.168;27.604;2023-04-06T03:38:51;8.67;;;5.60;;
60426;SDS011;46274;47.168;27.604;2023-04-06T03:44:54;10.23;;;5.90;;
60426;SDS011;46274;47.168;27.604;2023-04-06T03:51:00;8.47;;;5.10;;
60426;SDS011;46274;47.168;27.604;2023-04-06T03:57:12;7.77;;;5.13;;
60426;SDS011;46274;47.168;27.604;2023-04-06T04:03:16;8.53;;;5.20;;
60426;SDS011;46274;47.168;27.604;2023-04-06T04:09:21;9.97;;;5.43;;
60426;SDS011;46274;47.168;27.604;2023-04-06T04:15:25;10.87;;;5.67;;
60426;SDS011;46274;47.168;27.604;2023-04-06T04:21:29;8.33;;;5.33;;
60426;SDS011;46274;47.168;27.604;2023-04-06T04:27:33;6.13;;;4.43;;
60426;SDS011;46274;47.168;27.604;2023-04-06T04:33:36;9.93;;;5.37;;
60426;SDS011;46274;47.168;27.604;2023-04-06T04:39:38;9.90;;;5.00;;
60426;SDS011;46274;47.168;27.604;2023-04-06T04:45:40;9.90;;;5.47;;
60426;SDS011;46274;47.168;27.604;2023-04-06T04:51:42;7.47;;;4.77;;
60426;SDS011;46274;47.168;27.604;2023-04-06T04:57:51;6.17;;;4.27;;
60426;SDS011;46274;47.168;27.604;2023-04-06T05:03:53;6.80;;;4.47;;
60426;SDS011;46274;47.168;27.604;2023-04-06T05:09:58;9.03;;;4.83;;
60426;SDS011;46274;47.168;27.604;2023-04-06T05:16:00;7.93;;;4.80;;
60426;SDS011;46274;47.168;27.604;2023-04-06T05:22:02;9.93;;;5.17;;
60426;SDS011;46274;47.168;27.604;2023-04-06T05:28:04;9.40;;;3.97;;
60426;SDS011;46274;47.168;27.604;2023-04-06T05:34:07;8.30;;;4.60;;
60426;SDS011;46274;47.168;27.604;2023-04-06T05:40:11;9.60;;;4.80;;
60426;SDS011;46274;47.168;27.604;2023-04-06T05:46:16;7.50;;;4.63;;
60426;SDS011;46274;47.168;27.604;2023-04-06T05:52:18;9.23;;;4.50;;
60426;SDS011;46274;47.168;27.604;2023-04-06T05:58:21;8.07;;;4.73;;
60426;SDS011;46274;47.168;27.604;2023-04-06T06:04:23;7.03;;;4.13;;
60426;SDS011;46274;47.168;27.604;2023-04-06T06:10:26;16.13;;;5.37;;
60426;SDS011;46274;47.168;27.604;2023-04-06T06:16:29;6.67;;;4.00;;
60426;SDS011;46274;47.168;27.604;2023-04-06T06:22:31;7.30;;;4.23;;
60426;SDS011;46274;47.168;27.604;2023-04-06T06:28:41;7.93;;;4.00;;
60426;SDS011;46274;47.168;27.604;2023-04-06T06:34:50;7.13;;;4.27;;
60426;SDS011;46274;47.168;27.604;2023-04-06T06:40:54;7.90;;;4.33;;
60426;SDS011;46274;47.168;27.604;2023-04-06T06:46:56;8.80;;;4.27;;
60426;SDS011;46274;47.168;27.604;2023-04-06T06:53:05;7.40;;;4.13;;
60426;SDS011;46274;47.168;27.604;2023-04-06T06:59:11;7.03;;;4.23;;
60426;SDS011;46274;47.168;27.604;2023-04-06T07:05:15;8.20;;;4.20;;
60426;SDS011;46274;47.168;27.604;2023-04-06T07:28:39;5.87;;;3.70;;
60426;SDS011;46274;47.168;27.604;2023-04-06T07:34:44;6.03;;;3.50;;
60426;SDS011;46274;47.168;27.604;2023-04-06T07:41:07;5.43;;;3.30;;
60426;SDS011;46274;47.168;27.604;2023-04-06T07:47:32;6.23;;;3.57;;
60426;SDS011;46274;47.168;27.604;2023-04-06T07:53:59;5.97;;;3.67;;
60426;SDS011;46274;47.168;27.604;2023-04-06T08:00:22;7.90;;;4.37;;
60426;SDS011;46274;47.168;27.604;2023-04-06T08:06:44;6.47;;;4.00;;
60426;SDS011;46274;47.168;27.604;2023-04-06T08:12:55;6.13;;;3.73;;
60426;SDS011;46274;47.168;27.604;2023-04-06T08:19:02;7.80;;;3.70;;
60426;SDS011;46274;47.168;27.604;2023-04-06T08:25:26;5.50;;;3.43;;
60426;SDS011;46274;47.168;27.604;2023-04-06T08:31:37;7.50;;;4.57;;
60426;SDS011;46274;47.168;27.604;2023-04-06T08:37:55;7.13;;;4.30;;
60426;SDS011;46274;47.168;27.604;2023-04-06T08:44:04;6.13;;;4.13;;
60426;SDS011;46274;47.168;27.604;2023-04-06T08:50:18;6.40;;;3.60;;
60426;SDS011;46274;47.168;27.604;2023-04-06T08:56:46;6.20;;;3.60;;
60426;SDS011;46274;47.168;27.604;2023-04-06T09:02:59;7.03;;;3.87;;
60426;SDS011;46274;47.168;27.604;2023-04-06T09:09:13;6.43;;;3.17;;
60426;SDS011;46274;47.168;27.604;2023-04-06T09:15:27;8.00;;;4.53;;
60426;SDS011;46274;47.168;27.604;2023-04-06T09:21:32;6.30;;;3.93;;
60426;SDS011;46274;47.168;27.604;2023-04-06T09:27:47;6.87;;;4.20;;
60426;SDS011;46274;47.168;27.604;2023-04-06T09:33:57;6.53;;;3.70;;
60426;SDS011;46274;47.168;27.604;2023-04-06T09:40:02;9.33;;;4.40;;
60426;SDS011;46274;47.168;27.604;2023-04-06T09:46:22;9.80;;;4.87;;
60426;SDS011;46274;47.168;27.604;2023-04-06T09:53:03;8.73;;;4.50;;
60426;SDS011;46274;47.168;27.604;2023-04-06T09:59:36;9.03;;;4.90;;
60426;SDS011;46274;47.168;27.604;2023-04-06T10:05:46;9.60;;;4.53;;
60426;SDS011;46274;47.168;27.604;2023-04-06T10:12:04;6.57;;;4.07;;
60426;SDS011;46274;47.168;27.604;2023-04-06T10:18:11;6.73;;;4.17;;
60426;SDS011;46274;47.168;27.604;2023-04-06T10:24:23;5.10;;;3.37;;
60426;SDS011;46274;47.168;27.604;2023-04-06T10:30:27;5.60;;;3.60;;
60426;SDS011;46274;47.168;27.604;2023-04-06T10:36:33;8.00;;;4.50;;
60426;SDS011;46274;47.168;27.604;2023-04-06T10:42:37;6.50;;;4.30;;
60426;SDS011;46274;47.168;27.604;2023-04-06T10:48:41;7.37;;;4.17;;
60426;SDS011;46274;47.168;27.604;2023-04-06T10:54:49;8.03;;;4.90;;
60426;SDS011;46274;47.168;27.604;2023-04-06T11:00:53;7.17;;;4.90;;
60426;SDS011;46274;47.168;27.604;2023-04-06T11:06:57;6.60;;;4.37;;
60426;SDS011;46274;47.168;27.604;2023-04-06T11:13:00;7.37;;;5.07;;
60426;SDS011;46274;47.168;27.604;2023-04-06T11:19:03;7.03;;;4.30;;
60426;SDS011;46274;47.168;27.604;2023-04-06T11:25:07;9.27;;;5.07;;
60426;SDS011;46274;47.168;27.604;2023-04-06T11:31:10;6.80;;;4.43;;
60426;SDS011;46274;47.168;27.604;2023-04-06T11:37:13;7.83;;;4.80;;
60426;SDS011;46274;47.168;27.604;2023-04-06T11:43:15;7.77;;;4.97;;
60426;SDS011;46274;47.168;27.604;2023-04-06T11:49:21;16.73;;;6.97;;
60426;SDS011;46274;47.168;27.604;2023-04-06T11:55:23;6.03;;;3.73;;
60426;SDS011;46274;47.168;27.604;2023-04-06T12:01:44;4.93;;;3.23;;
60426;SDS011;46274;47.168;27.604;2023-04-06T12:08:04;5.03;;;3.20;;
60426;SDS011;46274;47.168;27.604;2023-04-06T12:14:10;4.20;;;3.27;;
60426;SDS011;46274;47.168;27.604;2023-04-06T12:20:13;11.10;;;4.17;;
60426;SDS011;46274;47.168;27.604;2023-04-06T12:26:27;7.13;;;4.10;;
60426;SDS011;46274;47.168;27.604;2023-04-06T12:32:32;4.33;;;3.17;;
60426;SDS011;46274;47.168;27.604;2023-04-06T12:38:34;5.03;;;3.23;;
60426;SDS011;46274;47.168;27.604;2023-04-06T12:44:40;5.57;;;3.60;;
60426;SDS011;46274;47.168;27.604;2023-04-06T12:50:44;6.30;;;3.63;;
60426;SDS011;46274;47.168;27.604;2023-04-06T12:57:00;6.83;;;3.90;;
60426;SDS011;46274;47.168;27.604;2023-04-06T13:03:02;5.63;;;2.93;;
60426;SDS011;46274;47.168;27.604;2023-04-06T13:09:11;7.30;;;4.27;;
60426;SDS011;46274;47.168;27.604;2023-04-06T13:15:13;4.97;;;3.43;;
60426;SDS011;46274;47.168;27.604;2023-04-06T13:21:17;4.90;;;2.90;;
60426;SDS011;46274;47.168;27.604;2023-04-06T13:27:45;5.00;;;3.53;;
60426;SDS011;46274;47.168;27.604;2023-04-06T13:33:52;5.70;;;3.43;;
60426;SDS011;46274;47.168;27.604;2023-04-06T13:39:54;6.53;;;3.77;;
60426;SDS011;46274;47.168;27.604;2023-04-06T13:46:26;7.07;;;3.30;;
60426;SDS011;46274;47.168;27.604;2023-04-06T13:52:34;4.67;;;2.70;;
60426;SDS011;46274;47.168;27.604;2023-04-06T13:58:47;5.50;;;3.33;;
60426;SDS011;46274;47.168;27.604;2023-04-06T14:04:58;6.33;;;3.87;;
60426;SDS011;46274;47.168;27.604;2023-04-06T14:11:05;7.10;;;4.23;;
60426;SDS011;46274;47.168;27.604;2023-04-06T14:17:20;7.30;;;3.53;;
60426;SDS011;46274;47.168;27.604;2023-04-06T14:23:31;6.60;;;3.07;;
60426;SDS011;46274;47.168;27.604;2023-04-06T14:29:34;5.07;;;2.90;;
60426;SDS011;46274;47.168;27.604;2023-04-06T14:35:40;6.20;;;3.33;;
60426;SDS011;46274;47.168;27.604;2023-04-06T14:41:53;5.67;;;3.10;;
60426;SDS011;46274;47.168;27.604;2023-04-06T14:48:04;4.80;;;2.93;;
60426;SDS011;46274;47.168;27.604;2023-04-06T14:54:08;5.73;;;3.60;;
60426;SDS011;46274;47.168;27.604;2023-04-06T15:00:21;6.33;;;3.40;;
60426;SDS011;46274;47.168;27.604;2023-04-06T15:06:23;5.50;;;3.20;;
60426;SDS011;46274;47.168;27.604;2023-04-06T15:12:26;5.07;;;3.47;;
60426;SDS011;46274;47.168;27.604;2023-04-06T15:18:30;6.53;;;3.80;;
60426;SDS011;46274;47.168;27.604;2023-04-06T15:24:32;8.17;;;4.20;;
60426;SDS011;46274;47.168;27.604;2023-04-06T15:30:34;6.33;;;3.73;;
60426;SDS011;46274;47.168;27.604;2023-04-06T15:36:37;5.97;;;3.80;;
60426;SDS011;46274;47.168;27.604;2023-04-06T15:42:43;4.57;;;2.90;;
60426;SDS011;46274;47.168;27.604;2023-04-06T15:48:45;7.53;;;4.00;;
60426;SDS011;46274;47.168;27.604;2023-04-06T15:54:49;5.23;;;3.43;;
60426;SDS011;46274;47.168;27.604;2023-04-06T16:00:51;6.77;;;3.47;;
60426;SDS011;46274;47.168;27.604;2023-04-06T16:06:54;5.63;;;3.33;;
60426;SDS011;46274;47.168;27.604;2023-04-06T16:12:56;5.03;;;3.20;;
60426;SDS011;46274;47.168;27.604;2023-04-06T16:19:01;5.90;;;3.30;;
60426;SDS011;46274;47.168;27.604;2023-04-06T16:25:04;4.90;;;2.93;;
60426;SDS011;46274;47.168;27.604;2023-04-06T16:31:15;4.87;;;2.53;;
60426;SDS011;46274;47.168;27.604;2023-04-06T16:37:21;5.60;;;3.17;;
60426;SDS011;46274;47.168;27.604;2023-04-06T16:43:23;8.50;;;4.30;;
60426;SDS011;46274;47.168;27.604;2023-04-06T16:49:33;5.90;;;3.57;;
60426;SDS011;46274;47.168;27.604;2023-04-06T16:55:41;5.93;;;3.57;;
60426;SDS011;46274;47.168;27.604;2023-04-06T17:01:44;5.30;;;3.23;;
60426;SDS011;46274;47.168;27.604;2023-04-06T17:07:46;6.10;;;3.60;;
60426;SDS011;46274;47.168;27.604;2023-04-06T17:13:54;12.27;;;5.40;;
60426;SDS011;46274;47.168;27.604;2023-04-06T17:19:57;8.43;;;4.57;;
60426;SDS011;46274;47.168;27.604;2023-04-06T17:26:03;8.53;;;4.20;;
60426;SDS011;46274;47.168;27.604;2023-04-06T17:32:07;6.87;;;3.40;;
60426;SDS011;46274;47.168;27.604;2023-04-06T17:38:13;5.60;;;3.27;;
60426;SDS011;46274;47.168;27.604;2023-04-06T17:44:15;5.57;;;3.43;;
60426;SDS011;46274;47.168;27.604;2023-04-06T17:50:17;4.93;;;3.10;;
60426;SDS011;46274;47.168;27.604;2023-04-06T17:56:20;5.87;;;3.20;;
60426;SDS011;46274;47.168;27.604;2023-04-06T18:02:22;5.10;;;3.20;;
60426;SDS011;46274;47.168;27.604;2023-04-06T18:08:25;7.97;;;4.30;;
60426;SDS011;46274;47.168;27.604;2023-04-06T18:14:27;6.87;;;3.67;;
60426;SDS011;46274;47.168;27.604;2023-04-06T18:20:30;6.73;;;3.53;;
60426;SDS011;46274;47.168;27.604;2023-04-06T18:26:32;4.97;;;2.30;;
60426;SDS011;46274;47.168;27.604;2023-04-06T18:32:36;6.73;;;3.23;;
60426;SDS011;46274;47.168;27.604;2023-04-06T18:38:41;4.90;;;2.57;;
60426;SDS011;46274;47.168;27.604;2023-04-06T18:44:49;3.67;;;2.20;;
60426;SDS011;46274;47.168;27.604;2023-04-06T18:50:52;4.90;;;2.23;;
60426;SDS011;46274;47.168;27.604;2023-04-06T18:57:03;4.33;;;2.47;;
60426;SDS011;46274;47.168;27.604;2023-04-06T19:03:06;6.07;;;2.90;;
60426;SDS011;46274;47.168;27.604;2023-04-06T19:09:09;4.60;;;2.47;;
60426;SDS011;46274;47.168;27.604;2023-04-06T19:15:14;5.60;;;3.00;;
60426;SDS011;46274;47.168;27.604;2023-04-06T19:21:18;6.60;;;2.37;;
60426;SDS011;46274;47.168;27.604;2023-04-06T19:27:24;3.00;;;2.10;;
60426;SDS011;46274;47.168;27.604;2023-04-06T19:33:29;3.30;;;1.97;;
60426;SDS011;46274;47.168;27.604;2023-04-06T19:39:31;3.43;;;2.07;;
60426;SDS011;46274;47.168;27.604;2023-04-06T19:45:37;3.57;;;1.80;;
60426;SDS011;46274;47.168;27.604;2023-04-06T19:51:42;3.40;;;2.13;;
60426;SDS011;46274;47.168;27.604;2023-04-06T19:57:44;4.60;;;2.57;;
60426;SDS011;46274;47.168;27.604;2023-04-06T20:03:47;4.50;;;2.60;;
60426;SDS011;46274;47.168;27.604;2023-04-06T20:09:49;4.67;;;2.43;;
60426;SDS011;46274;47.168;27.604;2023-04-06T20:15:54;4.90;;;2.30;;
60426;SDS011;46274;47.168;27.604;2023-04-06T20:22:02;6.03;;;2.60;;
60426;SDS011;46274;47.168;27.604;2023-04-06T20:28:06;3.57;;;1.87;;
60426;SDS011;46274;47.168;27.604;2023-04-06T20:34:13;3.33;;;2.27;;
60426;SDS011;46274;47.168;27.604;2023-04-06T20:40:16;6.37;;;2.67;;
60426;SDS011;46274;47.168;27.604;2023-04-06T20:46:19;6.63;;;2.90;;
60426;SDS011;46274;47.168;27.604;2023-04-06T20:52:21;4.60;;;2.53;;
60426;SDS011;46274;47.168;27.604;2023-04-06T20:58:24;6.77;;;3.03;;
60426;SDS011;46274;47.168;27.604;2023-04-06T21:04:26;4.73;;;2.90;;
60426;SDS011;46274;47.168;27.604;2023-04-06T21:10:29;5.20;;;3.03;;
60426;SDS011;46274;47.168;27.604;2023-04-06T21:16:31;6.40;;;2.97;;
60426;SDS011;46274;47.168;27.604;2023-04-06T21:22:34;4.37;;;2.60;;
60426;SDS011;46274;47.168;27.604;2023-04-06T21:28:36;6.90;;;2.97;;
60426;SDS011;46274;47.168;27.604;2023-04-06T21:34:42;5.03;;;2.20;;
60426;SDS011;46274;47.168;27.604;2023-04-06T21:40:54;4.60;;;2.53;;
60426;SDS011;46274;47.168;27.604;2023-04-06T21:46:56;4.60;;;2.50;;
60426;SDS011;46274;47.168;27.604;2023-04-06T21:52:59;4.57;;;2.73;;
60426;SDS011;46274;47.168;27.604;2023-04-06T21:59:02;4.40;;;2.30;;
60426;SDS011;46274;47.168;27.604;2023-04-06T22:05:05;5.87;;;3.13;;
60426;SDS011;46274;47.168;27.604;2023-04-06T22:11:08;3.43;;;2.13;;
60426;SDS011;46274;47.168;27.604;2023-04-06T22:17:12;4.33;;;2.43;;
60426;SDS011;46274;47.168;27.604;2023-04-06T22:23:14;4.87;;;2.80;;
60426;SDS011;46274;47.168;27.604;2023-04-06T22:29:17;3.67;;;2.30;;
60426;SDS011;46274;47.168;27.604;2023-04-06T22:35:20;7.10;;;3.10;;
60426;SDS011;46274;47.168;27.604;2023-04-06T22:41:24;5.10;;;2.80;;
60426;SDS011;46274;47.168;27.604;2023-04-06T22:47:27;4.73;;;1.90;;
60426;SDS011;46274;47.168;27.604;2023-04-06T22:53:30;3.03;;;1.60;;
60426;SDS011;46274;47.168;27.604;2023-04-06T22:59:32;3.87;;;2.23;;
60426;SDS011;46274;47.168;27.604;2023-04-06T23:05:34;3.77;;;2.37;;
60426;SDS011;46274;47.168;27.604;2023-04-06T23:11:37;3.37;;;2.10;;
60426;SDS011;46274;47.168;27.604;2023-04-06T23:17:39;3.90;;;1.97;;
60426;SDS011;46274;47.168;27.604;2023-04-06T23:23:44;3.90;;;2.00;;
60426;SDS011;46274;47.168;27.604;2023-04-06T23:29:46;6.17;;;2.13;;
60426;SDS011;46274;47.168;27.604;2023-04-06T23:35:49;5.03;;;2.50;;
60426;SDS011;46274;47.168;27.604;2023-04-06T23:41:54;6.37;;;3.53;;
60426;SDS011;46274;47.168;27.604;2023-04-06T23:47:56;6.93;;;3.83;;
60426;SDS011;46274;47.168;27.604;2023-04-06T23:53:59;5.67;;;3.13;;
